createdAt,value
2023-04-16T00:01:40.815Z,101463.97
2023-04-16T00:04:08.925Z,101469.37
2023-04-16T00:06:36.897Z,101462.01
2023-04-16T00:09:04.872Z,101463.16
2023-04-16T00:11:32.819Z,101462.01
2023-04-16T00:14:00.822Z,101466.00
2023-04-16T00:16:29.246Z,101471.69
2023-04-16T00:18:57.299Z,101473.39
2023-04-16T00:21:25.336Z,101469.79
2023-04-16T00:23:53.423Z,101475.71
2023-04-16T00:26:21.367Z,101463.48
2023-04-16T00:28:49.349Z,101470.84
2023-04-16T00:31:17.388Z,101469.17
2023-04-16T00:33:45.417Z,101470.64
2023-04-16T00:36:13.379Z,101468.32
2023-04-16T00:38:41.425Z,101476.52
2023-04-16T00:41:09.386Z,101469.46
2023-04-16T00:43:37.435Z,101467.80
2023-04-16T00:46:06.380Z,101464.10
2023-04-16T00:48:35.249Z,101470.64
2023-04-16T00:51:05.033Z,101473.59
2023-04-16T00:53:33.279Z,101466.52
2023-04-16T00:56:01.508Z,101474.53
2023-04-16T00:58:29.577Z,101473.48
2023-04-16T01:00:57.826Z,101469.27
2023-04-16T01:03:26.188Z,101470.12
2023-04-16T01:05:54.212Z,101468.13
2023-04-16T01:08:22.834Z,101472.96
2023-04-16T01:10:50.854Z,101469.89
2023-04-16T01:13:18.838Z,101475.28
2023-04-16T01:15:46.760Z,101475.05
2023-04-16T01:18:16.886Z,101476.52
2023-04-16T01:20:45.167Z,101476.85
2023-04-16T01:23:13.219Z,101475.80
2023-04-16T01:25:41.127Z,101480.32
2023-04-16T01:28:09.184Z,101481.17
2023-04-16T01:30:37.239Z,101479.17
2023-04-16T01:33:05.246Z,101471.27
2023-04-16T01:35:33.251Z,101478.62
2023-04-16T01:38:01.279Z,101476.95
2023-04-16T01:40:29.322Z,101472.73
2023-04-16T01:42:57.421Z,101473.91
2023-04-16T01:45:25.375Z,101471.36
2023-04-16T01:47:53.434Z,101472.84
2023-04-16T01:50:21.885Z,101476.92
2023-04-16T01:52:49.911Z,101472.08
2023-04-16T01:55:17.861Z,101478.85
2023-04-16T01:57:45.758Z,101471.98
2023-04-16T02:00:13.769Z,101481.37
2023-04-16T02:02:42.124Z,101483.07
2023-04-16T02:05:10.333Z,101475.88
2023-04-16T02:07:38.291Z,101476.20
2023-04-16T02:10:06.792Z,101477.37
2023-04-16T02:12:34.747Z,101478.72
2023-04-16T02:15:02.759Z,101475.88
2023-04-16T02:17:30.804Z,101476.20
2023-04-16T02:19:58.798Z,101482.19
2023-04-16T02:22:26.864Z,101495.06
2023-04-16T02:24:54.935Z,101482.55
2023-04-16T02:27:22.910Z,101483.69
2023-04-16T02:29:50.989Z,101486.53
2023-04-16T02:32:19.653Z,101487.05
2023-04-16T02:34:47.734Z,101481.70
2023-04-16T02:37:16.730Z,101490.23
2023-04-16T02:39:45.269Z,101487.87
2023-04-16T02:42:13.193Z,101479.99
2023-04-16T02:44:41.166Z,101487.05
2023-04-16T02:47:09.293Z,101479.90
2023-04-16T02:49:37.353Z,101481.27
2023-04-16T02:52:05.375Z,101484.41
2023-04-16T02:54:33.361Z,101483.79
2023-04-16T02:57:01.454Z,101486.63
2023-04-16T02:59:29.852Z,101484.67
2023-04-16T03:01:58.049Z,101484.96
2023-04-16T03:04:26.272Z,101481.56
2023-04-16T03:06:54.303Z,101488.13
2023-04-16T03:09:22.380Z,101484.41
2023-04-16T03:11:50.354Z,101486.11
2023-04-16T03:14:18.296Z,101484.96
2023-04-16T03:16:46.377Z,101492.32
2023-04-16T03:19:14.426Z,101491.47
2023-04-16T03:21:42.437Z,101484.73
2023-04-16T03:24:10.360Z,101495.49
2023-04-16T03:26:38.509Z,101489.80
2023-04-16T03:29:06.865Z,101489.24
2023-04-16T03:31:35.006Z,101488.76
2023-04-16T03:34:03.010Z,101490.65
2023-04-16T03:36:30.915Z,101493.27
2023-04-16T03:38:58.886Z,101489.61
2023-04-16T03:41:26.786Z,101486.44
2023-04-16T03:43:54.775Z,101487.25
2023-04-16T03:46:22.868Z,101488.43
2023-04-16T03:48:50.914Z,101490.09
2023-04-16T03:51:18.796Z,101490.98
2023-04-16T03:53:47.348Z,101496.30
2023-04-16T03:56:15.322Z,101492.09
2023-04-16T03:58:43.290Z,101501.48
2023-04-16T04:01:11.253Z,101497.78
2023-04-16T04:03:39.497Z,101492.09
2023-04-16T04:06:10.875Z,101489.80
2023-04-16T04:08:39.021Z,101491.47
2023-04-16T04:11:07.007Z,101498.86
2023-04-16T04:13:34.937Z,101499.38
2023-04-16T04:16:02.897Z,101501.37
2023-04-16T04:18:30.856Z,101505.89
2023-04-16T04:20:59.197Z,101503.93
2023-04-16T04:23:27.106Z,101501.37
2023-04-16T04:25:55.074Z,101509.91
2023-04-16T04:28:23.031Z,101507.06
2023-04-16T04:30:50.930Z,101511.91
2023-04-16T04:33:18.958Z,101510.23
2023-04-16T04:35:46.953Z,101520.44
2023-04-16T04:38:16.214Z,101515.60
2023-04-16T04:40:44.301Z,101518.15
2023-04-16T04:43:12.344Z,101517.27
2023-04-16T04:45:40.304Z,101513.60
2023-04-16T04:48:08.400Z,101520.11
2023-04-16T04:50:36.400Z,101527.50
2023-04-16T04:53:05.938Z,101526.03
2023-04-16T04:55:33.918Z,101524.03
2023-04-16T04:58:01.848Z,101527.41
2023-04-16T05:00:29.884Z,101534.79
2023-04-16T05:02:57.900Z,101537.63
2023-04-16T05:05:26.012Z,101543.00
2023-04-16T05:07:54.046Z,101542.15
2023-04-16T05:10:22.293Z,101538.13
2023-04-16T05:12:50.372Z,101542.15
2023-04-16T05:15:18.407Z,101547.22
2023-04-16T05:17:46.430Z,101551.73
2023-04-16T05:20:14.429Z,101548.03
2023-04-16T05:22:42.662Z,101549.77
2023-04-16T05:25:10.777Z,101550.06
2023-04-16T05:27:38.889Z,101542.34
2023-04-16T05:30:07.544Z,101543.81
2023-04-16T05:32:35.614Z,101548.69
2023-04-16T05:35:03.876Z,101550.68
2023-04-16T05:37:31.984Z,101551.30
2023-04-16T05:40:00.041Z,101552.68
2023-04-16T05:42:28.130Z,101554.38
2023-04-16T05:44:56.203Z,101562.26
2023-04-16T05:47:25.312Z,101562.48
2023-04-16T05:49:53.331Z,101557.32
2023-04-16T05:52:21.335Z,101567.55
2023-04-16T05:54:49.467Z,101560.72
2023-04-16T05:57:17.643Z,101577.46
2023-04-16T05:59:45.665Z,101581.16
2023-04-16T06:02:13.717Z,101583.67
2023-04-16T06:04:41.780Z,101578.54
2023-04-16T06:07:09.757Z,101578.73
2023-04-16T06:09:37.850Z,101571.58
2023-04-16T06:12:05.911Z,101578.12
2023-04-16T06:14:33.931Z,101565.56
2023-04-16T06:17:01.899Z,101578.64
2023-04-16T06:19:29.839Z,101579.16
2023-04-16T06:21:58.114Z,101582.01
2023-04-16T06:24:26.129Z,101571.45
2023-04-16T06:26:54.313Z,101580.86
2023-04-16T06:29:27.923Z,101574.29
2023-04-16T06:32:01.582Z,101583.70
2023-04-16T06:34:29.747Z,101587.17
2023-04-16T06:36:57.669Z,101581.48
2023-04-16T06:39:25.689Z,101587.07
2023-04-16T06:41:53.635Z,101588.45
2023-04-16T06:44:21.525Z,101588.15
2023-04-16T06:46:49.636Z,101590.34
2023-04-16T06:49:17.648Z,101592.86
2023-04-16T06:51:45.608Z,101590.24
2023-04-16T06:54:13.672Z,101596.45
2023-04-16T06:56:41.648Z,101596.45
2023-04-16T06:59:09.849Z,101594.17
2023-04-16T07:01:37.977Z,101597.02
2023-04-16T07:04:06.555Z,101592.44
2023-04-16T07:06:35.291Z,101599.86
2023-04-16T07:09:03.199Z,101601.52
2023-04-16T07:11:31.559Z,101605.55
2023-04-16T07:14:00.348Z,101610.06
2023-04-16T07:16:28.511Z,101612.91
2023-04-16T07:18:56.499Z,101608.59
2023-04-16T07:21:24.422Z,101612.48
2023-04-16T07:23:52.365Z,101603.09
2023-04-16T07:26:20.334Z,101611.30
2023-04-16T07:28:48.333Z,101606.98
2023-04-16T07:31:16.329Z,101612.67
2023-04-16T07:33:44.261Z,101605.94
2023-04-16T07:36:12.450Z,101615.95
2023-04-16T07:38:40.366Z,101615.03
2023-04-16T07:41:08.285Z,101620.91
2023-04-16T07:43:36.303Z,101621.47
2023-04-16T07:46:04.443Z,101623.17
2023-04-16T07:48:32.488Z,101627.26
2023-04-16T07:51:00.513Z,101624.12
2023-04-16T07:53:28.471Z,101625.79
2023-04-16T07:55:56.515Z,101623.50
2023-04-16T07:58:24.608Z,101630.82
2023-04-16T08:00:52.889Z,101633.37
2023-04-16T08:03:21.048Z,101630.23
2023-04-16T08:05:49.194Z,101635.56
2023-04-16T08:08:17.400Z,101637.75
2023-04-16T08:10:45.287Z,101637.23
2023-04-16T08:13:13.349Z,101638.11
2023-04-16T08:15:41.368Z,101644.06
2023-04-16T08:18:14.297Z,101646.84
2023-04-16T08:20:42.805Z,101656.13
2023-04-16T08:23:10.766Z,101657.93
2023-04-16T08:25:39.067Z,101659.07
2023-04-16T08:28:07.144Z,101661.72
2023-04-16T08:30:35.260Z,101657.73
2023-04-16T08:33:03.444Z,101670.28
2023-04-16T08:35:31.816Z,101659.53
2023-04-16T08:38:02.380Z,101666.79
2023-04-16T08:40:30.904Z,101672.93
2023-04-16T08:43:00.483Z,101669.24
2023-04-16T08:45:28.953Z,101672.18
2023-04-16T08:47:57.319Z,101673.36
2023-04-16T08:50:26.151Z,101683.07
2023-04-16T08:52:55.581Z,101676.30
2023-04-16T08:55:27.449Z,101683.37
2023-04-16T08:58:01.684Z,101687.62
2023-04-16T09:00:30.110Z,101688.53
2023-04-16T09:02:58.373Z,101687.38
2023-04-16T09:05:27.720Z,101687.68
2023-04-16T09:07:56.265Z,101688.76
2023-04-16T09:10:24.233Z,101693.92
2023-04-16T09:12:52.548Z,101696.15
2023-04-16T09:15:20.458Z,101697.20
2023-04-16T09:17:48.671Z,101688.76
2023-04-16T09:20:16.975Z,101697.20
2023-04-16T09:22:44.984Z,101694.25
2023-04-16T09:25:13.159Z,101698.77
2023-04-16T09:27:41.284Z,101704.45
2023-04-16T09:30:23.257Z,101699.94
2023-04-16T09:32:51.979Z,101699.94
2023-04-16T09:35:20.665Z,101709.42
2023-04-16T09:37:58.539Z,101701.94
2023-04-16T09:40:28.533Z,101709.65
2023-04-16T09:42:59.796Z,101713.02
2023-04-16T09:45:28.559Z,101705.01
2023-04-16T09:47:56.630Z,101715.21
2023-04-16T09:50:24.673Z,101712.37
2023-04-16T09:52:52.992Z,101715.44
2023-04-16T09:55:25.062Z,101715.11
2023-04-16T09:58:00.379Z,101713.74
2023-04-16T10:00:28.350Z,101711.45
2023-04-16T10:03:07.543Z,101714.59
2023-04-16T10:05:35.942Z,101720.48
2023-04-16T10:08:03.974Z,101723.88
2023-04-16T10:10:31.986Z,101726.30
2023-04-16T10:13:00.213Z,101725.34
2023-04-16T10:15:28.207Z,101727.05
2023-04-16T10:17:56.479Z,101725.34
2023-04-16T10:20:24.545Z,101723.65
2023-04-16T10:22:52.588Z,101726.82
2023-04-16T10:25:20.685Z,101729.99
2023-04-16T10:30:16.966Z,101729.04
2023-04-16T10:32:45.322Z,101741.50
2023-04-16T10:35:18.007Z,101730.09
2023-04-16T10:37:46.644Z,101727.77
2023-04-16T10:40:27.490Z,101735.97
2023-04-16T10:42:57.132Z,101733.68
2023-04-16T10:45:33.119Z,101728.29
2023-04-16T10:48:01.242Z,101728.95
2023-04-16T10:50:36.463Z,101721.52
2023-04-16T10:53:27.203Z,101727.57
2023-04-16T10:56:04.428Z,101722.37
2023-04-16T10:58:33.480Z,101726.59
2023-04-16T11:01:02.592Z,101728.29
2023-04-16T11:03:33.958Z,101729.66
2023-04-16T11:06:15.916Z,101724.46
2023-04-16T11:08:53.890Z,101728.71
2023-04-16T11:11:23.361Z,101728.35
2023-04-16T11:13:51.332Z,101736.92
2023-04-16T11:16:19.454Z,101725.51
2023-04-16T11:18:51.725Z,101730.58
2023-04-16T11:21:19.983Z,101730.58
2023-04-16T11:23:51.700Z,101739.38
2023-04-16T11:26:29.672Z,101737.34
2023-04-16T11:28:58.474Z,101736.53
2023-04-16T11:31:28.470Z,101740.71
2023-04-16T11:33:57.536Z,101734.17
2023-04-16T11:36:27.448Z,101742.41
2023-04-16T11:39:02.661Z,101740.38
2023-04-16T11:41:30.606Z,101741.76
2023-04-16T11:43:58.876Z,101739.77
2023-04-16T11:46:39.328Z,101738.30
2023-04-16T11:49:07.487Z,101747.88
2023-04-16T11:51:40.480Z,101740.06
2023-04-16T11:54:11.864Z,101746.92
2023-04-16T11:56:40.361Z,101743.43
2023-04-16T11:59:24.428Z,101741.63
2023-04-16T12:01:53.800Z,101737.73
2023-04-16T12:04:23.298Z,101748.49
2023-04-16T12:07:16.354Z,101742.02
2023-04-16T12:09:44.953Z,101751.47
2023-04-16T12:12:34.513Z,101744.38
2023-04-16T12:15:06.268Z,101747.74
2023-04-16T12:17:35.140Z,101753.76
2023-04-16T12:20:10.633Z,101747.41
2023-04-16T12:22:40.060Z,101747.94
2023-04-16T12:25:09.569Z,101742.25
2023-04-16T12:27:53.742Z,101751.30
2023-04-16T12:30:23.958Z,101754.48
2023-04-16T12:32:55.113Z,101757.65
2023-04-16T12:35:34.826Z,101754.61
2023-04-16T12:38:02.893Z,101760.13
2023-04-16T12:40:30.933Z,101757.06
2023-04-16T12:42:59.354Z,101759.74
2023-04-16T12:45:27.608Z,101763.53
2023-04-16T12:47:55.883Z,101761.97
2023-04-16T12:50:24.300Z,101762.29
2023-04-16T12:52:52.534Z,101766.54
2023-04-16T12:55:20.914Z,101762.39
2023-04-16T12:57:50.467Z,101759.28
2023-04-16T13:00:18.739Z,101763.99
2023-04-16T13:02:47.256Z,101761.38
2023-04-16T13:05:17.884Z,101766.94
2023-04-16T13:07:45.910Z,101758.44
2023-04-16T13:10:14.317Z,101756.84
2023-04-16T13:12:42.368Z,101747.80
2023-04-16T13:15:11.238Z,101752.02
2023-04-16T13:17:39.397Z,101757.09
2023-04-16T13:20:07.974Z,101757.75
2023-04-16T13:22:35.919Z,101749.31
2023-04-16T13:25:03.913Z,101760.20
2023-04-16T13:27:33.464Z,101754.84
2023-04-16T13:30:01.565Z,101754.84
2023-04-16T13:32:30.197Z,101760.33
2023-04-16T13:34:58.160Z,101753.98
2023-04-16T13:37:26.247Z,101753.53
2023-04-16T13:39:54.296Z,101762.49
2023-04-16T13:42:23.477Z,101759.91
2023-04-16T13:44:54.463Z,101761.84
2023-04-16T13:47:22.622Z,101758.04
2023-04-16T13:49:50.568Z,101760.95
2023-04-16T13:52:18.636Z,101753.07
2023-04-16T13:54:46.664Z,101754.94
2023-04-16T13:57:15.174Z,101764.02
2023-04-16T13:59:43.094Z,101752.05
2023-04-16T14:02:12.009Z,101759.28
2023-04-16T14:04:40.190Z,101755.91
2023-04-16T14:07:08.205Z,101747.68
2023-04-16T14:09:36.163Z,101752.02
2023-04-16T14:12:04.188Z,101755.88
2023-04-16T14:14:32.542Z,101759.38
2023-04-16T14:17:00.580Z,101756.15
2023-04-16T14:19:28.599Z,101759.64
2023-04-16T14:21:56.522Z,101769.55
2023-04-16T14:24:24.567Z,101762.62
2023-04-16T14:26:52.546Z,101772.16
2023-04-16T14:29:20.598Z,101771.45
2023-04-16T14:31:48.713Z,101767.75
2023-04-16T14:34:16.737Z,101773.45
2023-04-16T14:36:45.237Z,101769.45
2023-04-16T14:39:13.272Z,101771.77
2023-04-16T14:41:41.240Z,101769.59
2023-04-16T14:44:09.644Z,101773.45
2023-04-16T14:46:39.825Z,101769.23
2023-04-16T14:49:10.076Z,101767.55
2023-04-16T14:51:39.445Z,101768.21
2023-04-16T14:54:07.924Z,101778.67
2023-04-16T14:56:35.961Z,101772.95
2023-04-16T14:59:03.930Z,101775.83
2023-04-16T15:01:31.913Z,101784.40
2023-04-16T15:04:02.176Z,101774.45
2023-04-16T15:06:30.353Z,101782.79
2023-04-16T15:08:58.336Z,101776.02
2023-04-16T15:11:26.358Z,101780.90
2023-04-16T15:13:54.289Z,101775.63
2023-04-16T15:16:22.439Z,101787.73
2023-04-16T15:18:51.247Z,101783.48
2023-04-16T15:21:19.366Z,101779.06
2023-04-16T15:23:47.641Z,101785.44
2023-04-16T15:26:15.782Z,101784.27
2023-04-16T15:28:43.703Z,101781.75
2023-04-16T15:31:11.870Z,101793.16
2023-04-16T15:33:40.008Z,101785.77
2023-04-16T15:36:08.294Z,101786.06
2023-04-16T15:38:36.367Z,101787.24
2023-04-16T15:41:04.479Z,101792.11
2023-04-16T15:43:32.572Z,101789.92
2023-04-16T15:46:01.001Z,101791.06
2023-04-16T15:48:29.027Z,101796.27
2023-04-16T15:50:57.385Z,101793.42
2023-04-16T15:53:25.382Z,101794.56
2023-04-16T15:55:55.007Z,101799.11
2023-04-16T15:58:23.018Z,101801.43
2023-04-16T16:00:54.106Z,101800.25
2023-04-16T16:03:23.044Z,101798.88
2023-04-16T16:05:51.591Z,101800.05
2023-04-16T16:08:19.793Z,101801.56
2023-04-16T16:10:48.197Z,101801.04
2023-04-16T16:13:19.502Z,101804.21
2023-04-16T16:15:47.703Z,101806.04
2023-04-16T16:18:15.797Z,101806.95
2023-04-16T16:20:44.195Z,101805.95
2023-04-16T16:23:12.888Z,101811.11
2023-04-16T16:25:41.023Z,101812.09
2023-04-16T16:28:10.199Z,101808.69
2023-04-16T16:30:38.264Z,101802.15
2023-04-16T16:33:06.284Z,101805.55
2023-04-16T16:35:34.419Z,101811.01
2023-04-16T16:38:03.242Z,101812.19
2023-04-16T16:40:32.344Z,101817.05
2023-04-16T16:43:00.520Z,101812.80
2023-04-16T16:45:29.606Z,101813.16
2023-04-16T16:48:00.472Z,101810.62
2023-04-16T16:50:28.574Z,101817.48
2023-04-16T16:52:56.617Z,101813.27
2023-04-16T16:55:24.846Z,101819.15
2023-04-16T16:57:52.914Z,101818.62
2023-04-16T17:00:22.854Z,101819.80
2023-04-16T17:02:52.765Z,101828.70
2023-04-16T17:05:21.163Z,101829.52
2023-04-16T17:07:49.235Z,101826.48
2023-04-16T17:10:21.617Z,101831.31
2023-04-16T17:12:50.150Z,101831.02
2023-04-16T17:15:21.254Z,101828.60
2023-04-16T17:17:49.951Z,101828.38
2023-04-16T17:20:18.044Z,101823.83
2023-04-16T17:22:46.157Z,101830.37
2023-04-16T17:25:14.360Z,101829.32
2023-04-16T17:27:42.903Z,101835.34
2023-04-16T17:30:11.362Z,101837.95
2023-04-16T17:32:39.545Z,101835.11
2023-04-16T17:35:08.255Z,101840.83
2023-04-16T17:37:36.403Z,101841.45
2023-04-16T17:40:08.687Z,101842.63
2023-04-16T17:42:37.177Z,101847.47
2023-04-16T17:45:05.467Z,101838.38
2023-04-16T17:47:35.641Z,101838.09
2023-04-16T17:50:04.911Z,101833.87
2023-04-16T17:52:33.183Z,101838.18
2023-04-16T17:55:05.184Z,101849.04
2023-04-16T17:57:33.687Z,101848.84
2023-04-16T18:00:01.653Z,101840.27
2023-04-16T18:02:29.911Z,101850.84
2023-04-16T18:04:58.121Z,101842.63
2023-04-16T18:07:26.164Z,101858.84
2023-04-16T18:09:54.169Z,101850.31
2023-04-16T18:12:22.227Z,101849.27
2023-04-16T18:14:50.301Z,101860.97
2023-04-16T18:17:19.241Z,101854.20
2023-04-16T18:19:47.468Z,101844.27
2023-04-16T18:22:15.778Z,101853.68
2023-04-16T18:24:43.822Z,101849.76
2023-04-16T18:27:12.687Z,101852.60
2023-04-16T18:29:40.989Z,101856.10
2023-04-16T18:32:11.986Z,101857.24
2023-04-16T18:34:40.695Z,101857.24
2023-04-16T18:37:09.161Z,101864.63
2023-04-16T18:39:38.197Z,101868.09
2023-04-16T18:42:06.633Z,101862.73
2023-04-16T18:44:35.121Z,101863.36
2023-04-16T18:47:03.324Z,101871.07
2023-04-16T18:49:31.450Z,101871.70
2023-04-16T18:51:59.576Z,101871.37
2023-04-16T18:54:28.974Z,101872.22
2023-04-16T18:56:59.674Z,101869.99
2023-04-16T18:59:29.005Z,101874.84
2023-04-16T19:01:57.071Z,101873.46
2023-04-16T19:04:25.107Z,101877.16
2023-04-16T19:06:53.389Z,101873.98
2023-04-16T19:09:21.646Z,101878.01
2023-04-16T19:11:52.045Z,101871.23
2023-04-16T19:14:20.329Z,101884.34
2023-04-16T19:16:48.645Z,101881.47
2023-04-16T19:19:16.666Z,101878.63
2023-04-16T19:21:44.752Z,101891.15
2023-04-16T19:24:12.922Z,101889.16
2023-04-16T19:26:41.125Z,101898.57
2023-04-16T19:29:09.309Z,101886.63
2023-04-16T19:31:37.565Z,101891.77
2023-04-16T19:34:05.623Z,101889.55
2023-04-16T19:36:33.785Z,101889.05
2023-04-16T19:39:02.030Z,101881.34
2023-04-16T19:41:30.246Z,101882.74
2023-04-16T19:43:58.535Z,101887.81
2023-04-16T19:46:26.610Z,101882.09
2023-04-16T19:48:54.837Z,101889.25
2023-04-16T19:51:23.049Z,101880.16
2023-04-16T19:53:51.341Z,101885.88
2023-04-16T19:56:19.432Z,101885.03
2023-04-16T19:58:47.493Z,101883.10
2023-04-16T20:01:15.515Z,101892.26
2023-04-16T20:03:43.758Z,101882.58
2023-04-16T20:06:11.922Z,101881.73
2023-04-16T20:08:40.067Z,101879.18
2023-04-16T20:11:09.873Z,101886.05
2023-04-16T20:13:38.966Z,101879.61
2023-04-16T20:16:07.213Z,101877.58
2023-04-16T20:18:42.733Z,101874.44
2023-04-16T20:21:11.292Z,101880.36
2023-04-16T20:23:39.452Z,101876.04
2023-04-16T20:26:07.775Z,101882.26
2023-04-16T20:28:36.044Z,101882.26
2023-04-16T20:31:04.280Z,101878.56
2023-04-16T20:33:32.266Z,101878.56
2023-04-16T20:36:00.305Z,101872.87
2023-04-16T20:38:30.972Z,101871.73
2023-04-16T20:41:07.923Z,101882.26
2023-04-16T20:43:39.930Z,101879.12
2023-04-16T20:46:12.128Z,101885.66
2023-04-16T20:48:40.420Z,101875.95
2023-04-16T20:51:11.019Z,101869.73
2023-04-16T20:53:39.695Z,101872.05
2023-04-16T20:56:08.224Z,101866.63
2023-04-16T20:58:36.788Z,101864.11
2023-04-16T21:01:06.882Z,101870.98
2023-04-16T21:03:35.426Z,101862.12
2023-04-16T21:06:03.685Z,101866.43
2023-04-16T21:08:31.757Z,101860.22
2023-04-16T21:10:59.946Z,101859.27
2023-04-16T21:13:27.976Z,101858.98
2023-04-16T21:15:56.144Z,101860.94
2023-04-16T21:18:24.161Z,101858.42
2023-04-16T21:20:52.139Z,101855.02
2023-04-16T21:23:20.128Z,101856.49
2023-04-16T21:25:48.124Z,101851.42
2023-04-16T21:28:16.174Z,101856.26
2023-04-16T21:30:44.234Z,101849.76
2023-04-16T21:33:14.133Z,101848.91
2023-04-16T21:35:42.073Z,101851.16
2023-04-16T21:38:10.007Z,101842.10
2023-04-16T21:40:37.997Z,101846.09
2023-04-16T21:43:06.018Z,101843.80
2023-04-16T21:45:34.020Z,101844.59
2023-04-16T21:48:02.090Z,101843.41
2023-04-16T21:50:30.191Z,101851.75
2023-04-16T21:52:58.234Z,101847.20
2023-04-16T21:55:26.200Z,101835.50
2023-04-16T21:57:54.223Z,101844.88
2023-04-16T22:00:22.686Z,101842.59
2023-04-16T22:02:50.757Z,101839.75
2023-04-16T22:05:18.988Z,101833.51
2023-04-16T22:07:46.959Z,101834.35
2023-04-16T22:10:15.212Z,101835.83
2023-04-16T22:12:46.052Z,101834.98
2023-04-16T22:15:14.742Z,101830.40
2023-04-16T22:17:43.202Z,101829.55
2023-04-16T22:20:13.769Z,101833.24
2023-04-16T22:22:42.656Z,101829.52
2023-04-16T22:25:11.217Z,101824.68
2023-04-16T22:27:39.453Z,101823.83
2023-04-16T22:30:10.526Z,101825.79
2023-04-16T22:32:38.611Z,101825.30
2023-04-16T22:35:07.106Z,101819.87
2023-04-16T22:37:35.054Z,101824.12
2023-04-16T22:40:03.206Z,101819.80
2023-04-16T22:42:31.175Z,101816.96
2023-04-16T22:44:59.106Z,101811.83
2023-04-16T22:47:27.173Z,101806.10
2023-04-16T22:49:55.232Z,101810.65
2023-04-16T22:52:23.251Z,101812.64
2023-04-16T22:54:51.216Z,101809.48
2023-04-16T22:57:22.402Z,101808.10
2023-04-16T22:59:50.415Z,101813.49
2023-04-16T23:02:18.773Z,101804.96
2023-04-16T23:04:48.080Z,101810.65
2023-04-16T23:07:16.921Z,101809.48
2023-04-16T23:09:44.870Z,101805.78
2023-04-16T23:12:12.838Z,101800.41
2023-04-16T23:14:40.845Z,101797.57
2023-04-16T23:17:08.846Z,101810.32
2023-04-16T23:19:36.832Z,101799.80
2023-04-16T23:22:05.258Z,101800.94
2023-04-16T23:24:33.264Z,101801.46
2023-04-16T23:27:01.192Z,101800.65
2023-04-16T23:29:29.156Z,101801.13
2023-04-16T23:31:57.229Z,101797.80
2023-04-16T23:34:25.369Z,101796.63
2023-04-16T23:36:53.414Z,101790.38
2023-04-16T23:39:21.342Z,101784.20
2023-04-16T23:41:49.401Z,101789.04
2023-04-16T23:44:17.809Z,101780.99
2023-04-16T23:46:45.876Z,101785.87
2023-04-16T23:49:13.848Z,101783.84
2023-04-16T23:51:41.876Z,101786.72
2023-04-16T23:54:09.908Z,101781.84
2023-04-16T23:56:37.881Z,101791.55
2023-04-16T23:59:05.976Z,101781.32
